Burns Pinion Ridge Reserve, California Weather observations

Data are for 10 minute period ending at time listed.
 Day   Time   Solar   Ave.   Ave.  Ave.  Vector  Max.   Baro.   Total    
  of    of     Rad.   Air    Rel.  Wind   Wind   Wind  Press.  Precip.   
Year   Day            Temp.  Hum.  Speed  Dir.   Gust                    
2017   (PST)  Kw/m2    F      %     mph   deg.    mph    mb.     in.     
-------------------------------------------------------------------------
  84   13:10   0.61   61.6    38    6.3   199    12.5   874.5    0.00 
  84   13:20   0.21   59.4    41    6.8   186    14.1   874.4    0.00 
  84   13:30   0.85   60.7    39    6.6   169    16.2   874.3    0.00 
  84   13:40   0.90   63.0    35    7.2   152    15.3   874.2    0.00 
  84   13:50   0.76   62.8    36    7.7   193    18.6   874.2    0.00 
  84   14:00   0.38   60.8    38    6.6   199    13.4   874.3    0.00 
  84   14:10   0.49   60.1    39    7.3   207    13.7   874.3    0.00 
  84   14:20   0.22   58.0    43    8.0   214    13.3   874.2    0.00 
  84   14:30   0.35   57.9    43    7.8   209    12.2   874.1    0.00 
  84   14:40   0.30   58.6    42    5.2   210    13.5   873.9    0.00 
  84   14:50   0.43   58.3    42    5.4   192    11.4   873.8    0.00 
  84   15:00   0.59   60.6    38    7.4   206    12.8   873.6    0.00 
  84   15:10   0.35   59.9    39    5.1   198    10.2   873.5    0.00 
  84   15:20   0.37   59.7    39    6.0   212    11.6   873.5    0.00 
  84   15:30   0.38   60.5    39    5.8   197    10.2   873.5    0.00 
  84   15:40   0.33   60.0    39    7.3   210    10.7   873.5    0.00 
  84   15:50   0.19   59.0    41    4.7   208     9.9   873.5    0.00 
  84   16:00   0.34   59.7    40    4.3   213     9.2   873.5    0.00 
  84   16:10   0.42   61.1    38    5.2   197     9.6   873.6    0.00 
  84   16:20   0.36   60.6    39    5.8   200    10.5   873.6    0.00 
  84   16:30   0.24   59.8    40    5.4   208    11.5   873.5    0.00 
  84   16:40   0.17   59.0    41    4.3   212    10.4   873.6    0.00 
  84   16:50   0.07   57.1    44    3.7   179     8.3   873.6    0.00 
  84   17:00   0.06   55.9    45    4.6   217     8.6   873.5    0.00 
  84   17:10   0.09   56.8    43    4.0   227     7.6   873.6    0.00 
  84   17:20   0.03   55.6    46    2.4   193     5.6   873.6    0.00 
  84   17:30   0.03   54.8    48    3.5   168     7.6   873.6    0.00 
  84   17:40   0.04   54.7    49    2.2   191     5.4   873.7    0.00 
  84   17:50   0.02   55.1    48    1.5   214     2.6   873.7    0.00 
  84   18:00   0.01   53.2    52    3.0   190     5.8   873.7    0.00 
  84   18:10   0.00   52.7    54    3.5   220     5.2   873.8    0.00 
  84   18:20   0.00   52.2    55    1.6   306     3.4   873.8    0.00 
  84   18:30   0.00   51.6    55    1.1   121     5.8   873.8    0.00 
  84   18:40   0.00   51.1    53    2.0   277     5.4   873.9    0.00 
  84   18:50   0.00   50.8    51    1.1   267     3.1   873.9    0.00 
  84   19:00   0.00   50.1    53    0.8   198     4.5   873.9    0.00 
  84   19:10   0.00   49.3    57    3.1   205     7.1   874.0    0.00 
  84   19:20   0.00   50.7    60    4.9   213     6.7   874.1    0.00 
  84   19:30   0.00   50.5    60    3.9   235     6.2   874.2    0.00 
  84   19:40   0.00   49.7    61    3.8   282     6.0   874.4    0.00 
  84   19:50   0.00   49.2    61    4.5   295     7.1   874.4    0.00 
  84   20:00   0.00   47.9    58    5.1   313     7.2   874.4    0.00 
  84   20:10   0.00   47.7    51    4.8   305     6.9   874.5    0.00 
  84   20:20   0.00   47.9    48    5.2   302     7.6   874.5    0.00 
  84   20:30   0.00   47.7    49    6.1   307     9.1   874.6    0.00 
  84   20:40   0.00   47.4    50    5.8   314     7.6   874.8    0.00 
  84   20:50   0.00   47.8    49    7.2   316    10.2   874.8    0.00 
  84   21:00   0.00   48.7    47    6.4   301    10.7   874.8    0.00 
  84   21:10   0.00   48.5    46    6.1   298     9.1   874.9    0.00 
  84   21:20   0.00   47.8    47    5.8   308     8.2   874.8    0.00 
  84   21:30   0.00   48.0    46    5.7   301     8.6   874.8    0.00 
  84   21:40   0.00   47.8    46    4.8   301     8.8   874.8    0.00 
  84   21:50   0.00   47.8    45    5.6   312    10.4   874.7    0.00 
  84   22:00   0.00   48.7    41    6.9   313    10.7   874.7    0.00 
  84   22:10   0.00   48.9    41    4.6   324     8.2   874.7    0.00 
  84   22:20   0.00   46.9    46    2.3   308     4.4   874.7    0.00 
  84   22:30   0.00   44.9    50    2.6   295     3.9   874.6    0.00 
  84   22:40   0.00   43.4    52    3.1   306     4.9   874.6    0.00 
  84   22:50   0.00   42.9    53    3.6   315     5.2   874.7    0.00 
  84   23:00   0.00   42.9    52    3.8   310     6.0   874.6    0.00 
  84   23:10   0.00   43.1    50    2.8   306     4.3   874.6    0.00 
  84   23:20   0.00   41.9    52    2.2   312     3.4   874.6    0.00 
  84   23:30   0.00   40.6    55    2.0   308     3.3   874.6    0.00 
  84   23:40   0.00   40.9    55    1.8   306     2.9   874.6    0.00 
  84   23:50   0.00   41.1    55    1.5   303     2.9   874.6    0.00 
  85    0:00   0.00   41.1    52    2.0   309     3.6   874.7    0.00 
  85    0:10   0.00   40.9    51    1.2   323     2.6   874.6    0.00 
  85    0:20   0.00   40.2    52    0.6    87     3.6   874.6    0.00 
  85    0:30   0.00   41.4    47    1.1    74     5.0   874.6    0.00 
  85    0:40   0.00   40.1    51    1.3   148     2.0   874.7    0.00 
  85    0:50   0.00   39.2    55    2.5   102     4.0   874.7    0.00 
  85    1:00   0.00   39.6    58    2.2    71     3.7   874.7    0.00 
  85    1:10   0.00   41.8    52    3.7    57     6.0   874.7    0.00 
  85    1:20   0.00   45.5    42    4.5    44     5.8   874.5    0.00 
  85    1:30   0.00   46.1    38    4.3    18     6.1   874.4    0.00 
  85    1:40   0.00   43.8    43    2.2   358     4.0   874.2    0.00 
  85    1:50   0.00   41.0    49    1.8   345     2.8   874.2    0.00 
  85    2:00   0.00   39.8    51    0.8   322     2.0   874.1    0.00 
  85    2:10   0.00   39.0    53    0.9     3     1.8   874.1    0.00 
  85    2:20   0.00   38.5    54    1.1   316     2.0   874.1    0.00 
  85    2:30   0.00   38.1    54    0.5   339     1.7   874.0    0.00 
  85    2:40   0.00   38.1    53    0.1   355     0.7   874.0    0.00 
  85    2:50   0.00   37.6    54    0.0     0     0.0   873.9    0.00 
  85    3:00   0.00   36.9    56    0.1   166     0.7   873.9    0.00 
  85    3:10   0.00   36.4    58    0.0     0     0.0   873.9    0.00 
  85    3:20   0.00   36.5    59    0.2    50     1.2   873.9    0.00 
  85    3:30   0.00   36.4    58    0.5     6     1.8   873.9    0.00 
  85    3:40   0.00   36.4    59    0.1   270     0.7   873.9    0.00 
  85    3:50   0.00   35.9    60    0.0     0     0.0   873.9    0.00 
  85    4:00   0.00   35.8    61    0.6   303     1.5   874.0    0.00 
  85    4:10   0.00   36.0    60    0.5   304     1.2   874.0    0.00 
  85    4:20   0.00   36.0    60    0.2   268     0.9   874.0    0.00 
  85    4:30   0.00   35.7    60    0.0     0     0.0   874.2    0.00 
  85    4:40   0.00   35.7    60    0.0     0     0.0   874.2    0.00 
  85    4:50   0.00   35.8    59    1.2    89     2.9   874.3    0.00 
  85    5:00   0.00   35.8    61    1.4    61     2.6   874.3    0.00 
  85    5:10   0.00   36.6    61    2.2    60     3.1   874.4    0.00 
  85    5:20   0.00   36.6    62    1.3    55     2.1   874.4    0.00 
  85    5:30   0.00   36.4    63    1.0    63     1.8   874.4    0.00 
  85    5:40   0.00   35.9    64    0.7    64     1.6   874.4    0.00 
  85    5:50   0.00   36.0    66    1.1    72     2.0   874.5    0.00 
  85    6:00   0.01   36.6    68    0.3    38     0.9   874.6    0.00 
  85    6:10   0.01   37.0    69    0.9    71     1.9   874.5    0.00 
  85    6:20   0.01   37.0    71    0.8    65     1.3   874.6    0.00 
  85    6:30   0.02   37.4    72    0.8    65     1.7   874.7    0.00 
  85    6:40   0.08   39.8    61    1.9   334     2.7   874.9    0.00 
  85    6:50   0.18   46.8    44    1.3   337     2.3   875.0    0.00 
  85    7:00   0.21   51.2    37    1.1   353     1.8   875.1    0.00 
  85    7:10   0.25   53.0    34    0.8   350     1.5   875.2    0.00 
  85    7:20   0.29   57.5    31    0.1     4     1.1   875.4    0.00 
  85    7:30   0.32   58.6    32    1.0    30     2.6   875.4    0.00 
  85    7:40   0.36   57.7    33    1.8    81     3.6   875.2    0.00 
  85    7:50   0.40   57.1    35    2.2    74     4.6   875.2    0.00 
  85    8:00   0.44   57.1    35    2.2    63     5.3   875.4    0.00 
  85    8:10   0.48   58.4    34    1.9    63     5.0   875.3    0.00 
  85    8:20   0.51   58.1    35    3.0    79     6.1   875.2    0.00 
  85    8:30   0.57   57.8    35    2.7    82     6.6   875.0    0.00 
  85    8:40   0.48   57.5    36    3.9    58     7.2   875.0    0.00 
  85    8:50   0.61   57.9    36    3.9    88     6.5   875.1    0.00 
  85    9:00   0.64   57.5    36    3.6   101     6.8   875.1    0.00 
  85    9:10   0.67   59.0    34    2.5    77     5.7   875.2    0.00 
  85    9:20   0.69   61.2    32    2.3   119     6.1   875.3    0.00 
  85    9:30   0.72   61.1    32    3.8   133     8.0   875.3    0.00 
  85    9:40   0.74   60.5    33    3.9   122     7.8   875.4    0.00 
  85    9:50   0.76   62.3    31    2.8   167     6.6   875.6    0.00 
  85   10:00   0.79   62.9    29    4.7   178     9.1   875.7    0.00 
  85   10:10   0.81   62.5    29    6.2   164    12.6   875.8    0.00 
  85   10:20   0.82   62.4    29    5.9   142    11.1   875.8    0.00 
  85   10:30   0.84   62.2    30    6.1   137    13.0   875.8    0.00 
  85   10:40   0.85   63.3    29    5.0   163     9.9   875.7    0.00 
  85   10:50   0.87   64.0    26    8.2   164    16.7   875.7    0.00 
  85   11:00   0.88   63.8    25    5.8   197    13.2   875.6    0.00 
  85   11:10   0.89   63.9    26    5.3   185    11.2   875.6    0.00 
  85   11:20   0.90   64.2    26    6.5   159    13.2   875.6    0.00 
  85   11:30   0.90   63.7    27    7.3   156    15.8   875.6    0.00 
  85   11:40   0.90   63.6    29    8.9   151    15.6   875.6    0.00 
  85   11:50   0.90   63.3    30    9.2   160    15.3   875.5    0.00 
  85   12:00   0.88   63.8    30    7.5   150    16.5   875.3    0.00 
  85   12:10   0.90   63.8    30    6.5   198    13.6   875.2    0.00 
  85   12:20   0.90   64.2    28    6.8   215    14.2   875.1    0.00 
  85   12:30   0.89   63.2    28    7.9   216    14.0   875.1    0.00 
  85   12:40   0.88   63.6    27    6.8   222    15.0   875.1    0.00 
  85   12:50   0.87   63.4    27    7.0   205    15.3   875.2    0.00 
  85   13:00   0.86   63.6    28    7.1   249    18.3   875.1    0.00 

Return to Burns Pinion Ridge Reserve graphs page.


Western Regional Climate Center,wrcc@dri.edu